createdAt,value
2019-04-04T00:02:04.314Z,13.20
2019-04-04T00:04:35.510Z,13.50
2019-04-04T00:07:06.698Z,14.57
2019-04-04T00:09:37.809Z,14.17
2019-04-04T00:12:08.978Z,13.73
2019-04-04T00:14:40.305Z,13.70
2019-04-04T00:17:11.644Z,13.47
2019-04-04T00:19:42.810Z,14.17
2019-04-04T00:22:13.941Z,14.57
2019-04-04T00:24:45.082Z,15.47
2019-04-04T00:27:16.370Z,14.10
2019-04-04T00:29:47.987Z,14.53
2019-04-04T00:32:21.069Z,14.87
2019-04-04T00:34:52.854Z,13.87
2019-04-04T00:37:23.977Z,13.23
2019-04-04T00:39:56.158Z,15.07
2019-04-04T00:42:28.414Z,14.30
2019-04-04T00:44:59.595Z,13.27
2019-04-04T00:47:32.325Z,15.13
2019-04-04T00:50:06.126Z,14.90
2019-04-04T00:52:36.467Z,14.20
2019-04-04T00:55:07.733Z,14.07
2019-04-04T00:57:38.870Z,15.00
2019-04-04T01:00:10.322Z,15.60
2019-04-04T01:02:41.565Z,16.37
2019-04-04T01:05:12.742Z,16.00
2019-04-04T01:07:43.837Z,15.00
2019-04-04T01:10:15.128Z,14.03
2019-04-04T01:12:46.245Z,14.70
2019-04-04T01:15:17.609Z,13.73
2019-04-04T01:17:48.751Z,15.17
2019-04-04T01:20:20.339Z,15.53
2019-04-04T01:22:51.858Z,16.10
2019-04-04T01:25:22.995Z,15.83
2019-04-04T01:27:54.286Z,15.70
2019-04-04T01:30:25.491Z,15.67
2019-04-04T01:32:56.782Z,15.30
2019-04-04T01:35:27.906Z,17.07
2019-04-04T01:38:00.085Z,15.87
2019-04-04T01:40:33.699Z,15.60
2019-04-04T01:43:04.346Z,15.70
2019-04-04T01:45:55.208Z,16.33
2019-04-04T01:48:26.374Z,15.97
2019-04-04T01:50:57.466Z,16.10
2019-04-04T01:53:30.125Z,17.10
2019-04-04T01:56:01.421Z,16.57
2019-04-04T01:58:32.638Z,16.83
2019-04-04T02:01:03.798Z,15.90
2019-04-04T02:03:34.982Z,15.50
2019-04-04T02:06:06.182Z,16.13
2019-04-04T02:08:37.554Z,16.63
2019-04-04T02:11:09.102Z,15.57
2019-04-04T02:13:40.843Z,17.27
2019-04-04T02:16:12.642Z,16.70
2019-04-04T02:18:43.734Z,16.70
2019-04-04T02:21:15.322Z,16.63
2019-04-04T02:23:46.466Z,17.10
2019-04-04T02:26:17.591Z,17.40
2019-04-04T02:28:48.758Z,16.73
2019-04-04T02:31:21.003Z,16.17
2019-04-04T02:33:52.893Z,16.43
2019-04-04T02:36:24.036Z,15.17
2019-04-04T02:39:10.410Z,17.10
2019-04-04T02:41:41.665Z,17.07
2019-04-04T02:44:14.143Z,17.40
2019-04-04T02:46:45.807Z,16.87
2019-04-04T02:49:17.062Z,17.60
2019-04-04T02:51:48.208Z,16.43
2019-04-04T02:54:23.979Z,16.43
2019-04-04T02:56:52.148Z,16.63
2019-04-04T02:59:23.370Z,15.80
2019-04-04T03:01:53.865Z,17.03
2019-04-04T03:04:24.946Z,16.90
2019-04-04T03:06:58.477Z,16.27
2019-04-04T03:09:30.527Z,17.33
2019-04-04T03:12:01.716Z,16.60
2019-04-04T03:14:36.225Z,17.30
2019-04-04T03:17:04.763Z,15.93
2019-04-04T03:19:35.995Z,15.93
2019-04-04T03:22:10.504Z,16.50
2019-04-04T03:24:45.131Z,16.60
2019-04-04T03:27:16.641Z,16.90
2019-04-04T03:29:47.918Z,17.50
2019-04-04T03:32:19.139Z,16.93
2019-04-04T03:34:52.641Z,17.07
2019-04-04T03:37:24.774Z,17.37
2019-04-04T03:39:57.588Z,16.07
2019-04-04T03:42:28.917Z,15.83
2019-04-04T03:45:00.218Z,16.00
2019-04-04T03:47:31.689Z,15.90
2019-04-04T03:50:03.204Z,14.67
2019-04-04T03:52:34.561Z,15.00
2019-04-04T03:55:06.824Z,16.80
2019-04-04T03:57:38.859Z,16.13
2019-04-04T04:00:11.064Z,16.03
2019-04-04T04:02:42.555Z,15.90
2019-04-04T04:05:26.745Z,15.77
2019-04-04T04:07:59.617Z,16.30
2019-04-04T04:10:33.835Z,16.10
2019-04-04T04:13:05.506Z,15.63
2019-04-04T04:15:37.250Z,15.50
2019-04-04T04:18:08.384Z,15.90
2019-04-04T04:20:38.838Z,16.60
2019-04-04T04:23:10.207Z,16.23
2019-04-04T04:25:44.385Z,15.37
2019-04-04T04:28:19.807Z,15.83
2019-04-04T04:30:48.411Z,17.20
2019-04-04T04:33:19.733Z,16.70
2019-04-04T04:35:51.530Z,16.17
2019-04-04T04:38:25.210Z,16.07
2019-04-04T04:40:56.774Z,16.87
2019-04-04T04:43:32.409Z,16.60
2019-04-04T04:46:01.043Z,16.93
2019-04-04T04:48:32.237Z,16.33
2019-04-04T04:51:04.072Z,15.40
2019-04-04T04:53:34.625Z,16.00
2019-04-04T04:56:05.703Z,16.50
2019-04-04T04:58:36.778Z,16.17
2019-04-04T05:01:08.154Z,17.20
2019-04-04T05:03:39.530Z,16.23
2019-04-04T05:06:22.955Z,16.63
2019-04-04T05:08:54.121Z,15.60
2019-04-04T05:11:26.718Z,16.07
2019-04-04T05:13:58.174Z,15.00
2019-04-04T05:16:29.952Z,17.40
2019-04-04T05:19:01.131Z,16.07
2019-04-04T05:21:34.559Z,16.10
2019-04-04T05:24:07.142Z,16.40
2019-04-04T05:26:38.827Z,18.27
2019-04-04T05:29:13.220Z,17.80
2019-04-04T05:31:43.922Z,17.23
2019-04-04T05:34:15.011Z,17.27
2019-04-04T05:36:46.138Z,16.33
2019-04-04T05:39:18.141Z,17.13
2019-04-04T05:41:49.830Z,17.87
2019-04-04T05:44:21.024Z,17.07
2019-04-04T05:46:52.264Z,16.07
2019-04-04T05:49:23.392Z,17.00
2019-04-04T05:51:54.510Z,17.33
2019-04-04T05:54:25.682Z,17.73
2019-04-04T05:56:56.834Z,17.07
2019-04-04T05:59:28.017Z,17.33
2019-04-04T06:01:59.082Z,18.30
2019-04-04T06:04:30.278Z,17.43
2019-04-04T06:07:03.930Z,16.37
2019-04-04T06:09:34.190Z,16.67
2019-04-04T06:12:05.414Z,16.93
2019-04-04T06:14:36.449Z,16.27
2019-04-04T06:17:07.913Z,17.23
2019-04-04T06:19:39.098Z,16.03
2019-04-04T06:22:10.306Z,16.43
2019-04-04T06:24:41.462Z,17.00
2019-04-04T06:27:12.582Z,16.30
2019-04-04T06:29:43.752Z,16.23
2019-04-04T06:32:14.882Z,16.33
2019-04-04T06:34:46.018Z,16.97
2019-04-04T06:37:18.072Z,15.83
2019-04-04T06:39:49.943Z,15.90
2019-04-04T06:42:21.090Z,15.53
2019-04-04T06:44:54.229Z,15.93
2019-04-04T06:47:25.529Z,17.07
2019-04-04T06:49:57.409Z,15.50
2019-04-04T06:52:28.567Z,17.00
2019-04-04T06:55:00.102Z,16.40
2019-04-04T06:57:31.262Z,16.37
2019-04-04T07:00:03.606Z,16.63
2019-04-04T07:02:35.010Z,17.23
2019-04-04T07:05:10.322Z,17.13
2019-04-04T07:07:43.172Z,16.57
2019-04-04T07:10:12.526Z,16.37
2019-04-04T07:12:44.551Z,17.40
2019-04-04T07:15:16.197Z,18.17
2019-04-04T07:17:47.479Z,18.40
2019-04-04T07:20:18.614Z,15.73
2019-04-04T07:22:49.762Z,16.23
2019-04-04T07:25:20.215Z,15.97
2019-04-04T07:27:51.250Z,16.93
2019-04-04T07:30:22.371Z,16.83
2019-04-04T07:32:53.558Z,15.53
2019-04-04T07:35:24.659Z,16.27
2019-04-04T07:37:57.585Z,16.00
2019-04-04T07:40:28.599Z,17.53
2019-04-04T07:42:59.846Z,15.63
2019-04-04T07:45:31.074Z,16.13
2019-04-04T07:48:02.371Z,14.80
2019-04-04T07:50:33.564Z,15.23
2019-04-04T07:53:05.029Z,14.23
2019-04-04T07:55:36.173Z,15.10
2019-04-04T07:58:07.310Z,14.40
2019-04-04T08:00:39.021Z,15.05
2019-04-04T08:03:10.222Z,16.50
2019-04-04T08:05:42.266Z,14.70
2019-04-04T08:08:13.452Z,15.05
2019-04-04T08:10:44.580Z,13.88
2019-04-04T08:13:15.550Z,19.07
2019-04-04T08:15:46.574Z,13.95
2019-04-04T08:18:17.702Z,15.23
2019-04-04T08:20:49.502Z,14.68
2019-04-04T08:23:20.706Z,13.83
2019-04-04T08:25:51.842Z,15.05
2019-04-04T08:28:22.985Z,16.37
2019-04-04T08:30:54.746Z,14.68
2019-04-04T08:33:26.523Z,14.28
2019-04-04T08:36:06.018Z,13.83
2019-04-04T08:38:30.482Z,13.68
2019-04-04T08:41:02.071Z,13.18
2019-04-04T08:43:33.690Z,13.72
2019-04-04T08:46:05.497Z,12.90
2019-04-04T08:48:36.670Z,12.85
2019-04-04T08:51:08.437Z,12.23
2019-04-04T08:53:40.591Z,12.90
2019-04-04T08:56:12.361Z,12.65
2019-04-04T08:58:44.125Z,12.78
2019-04-04T09:01:15.858Z,14.70
2019-04-04T09:03:46.841Z,11.78
2019-04-04T09:06:19.426Z,11.53
2019-04-04T09:08:52.315Z,12.68
2019-04-04T09:11:24.938Z,11.85
2019-04-04T09:13:56.730Z,12.45
2019-04-04T09:16:29.590Z,12.18
2019-04-04T09:19:01.370Z,12.50
2019-04-04T09:21:33.200Z,11.35
2019-04-04T09:24:05.114Z,10.23
2019-04-04T09:26:36.831Z,12.30
2019-04-04T09:29:08.594Z,13.05
2019-04-04T09:31:40.217Z,16.67
2019-04-04T09:34:11.225Z,13.70
2019-04-04T09:36:42.785Z,11.68
2019-04-04T09:39:14.505Z,10.95
2019-04-04T09:41:46.254Z,11.88
2019-04-04T09:44:17.262Z,11.85
2019-04-04T09:46:48.842Z,12.82
2019-04-04T09:49:21.578Z,11.30
2019-04-04T09:51:53.386Z,11.90
2019-04-04T09:54:25.257Z,10.82
2019-04-04T09:56:57.022Z,11.63
2019-04-04T09:59:28.818Z,11.22
2019-04-04T10:02:00.517Z,11.22
2019-04-04T10:04:32.315Z,11.88
2019-04-04T10:07:03.375Z,11.80
2019-04-04T10:09:36.026Z,11.80
2019-04-04T10:12:07.791Z,11.22
2019-04-04T10:14:38.850Z,11.53
2019-04-04T10:17:10.358Z,11.95
2019-04-04T10:19:43.198Z,11.45
2019-04-04T10:22:14.933Z,11.48
2019-04-04T10:24:46.622Z,11.83
2019-04-04T10:27:18.330Z,11.10
2019-04-04T10:29:50.362Z,13.18
2019-04-04T10:32:21.266Z,11.05
2019-04-04T10:34:52.106Z,15.25
2019-04-04T10:37:23.633Z,10.40
2019-04-04T10:39:54.699Z,10.43
2019-04-04T10:42:26.267Z,10.13
2019-04-04T10:50:53.329Z,10.50
2019-04-04T10:53:25.223Z,9.63
2019-04-04T10:55:56.946Z,9.85
2019-04-04T10:58:28.714Z,11.08
2019-04-04T11:01:00.342Z,10.30
2019-04-04T11:03:32.053Z,9.63
2019-04-04T11:06:03.084Z,9.28
2019-04-04T11:08:35.750Z,10.43
2019-04-04T11:16:06.767Z,9.13
2019-04-04T11:18:38.593Z,9.83
2019-04-04T11:21:10.386Z,9.53
2019-04-04T11:23:42.199Z,7.92
2019-04-04T11:26:13.978Z,7.92
2019-04-04T11:28:45.739Z,7.95
2019-04-04T11:31:17.498Z,8.15
2019-04-04T11:33:49.233Z,7.15
2019-04-04T11:36:22.768Z,7.03
2019-04-04T11:38:54.507Z,8.35
2019-04-04T11:41:26.309Z,7.92
2019-04-04T11:43:57.337Z,7.45
2019-04-04T11:46:29.053Z,7.55
2019-04-04T11:49:00.819Z,7.95
2019-04-04T11:51:32.602Z,7.72
2019-04-04T11:54:03.653Z,7.62
2019-04-04T11:56:35.427Z,7.12
2019-04-04T11:59:08.281Z,6.83
2019-04-04T12:01:41.454Z,6.10
2019-04-04T12:04:13.265Z,6.92
2019-04-04T12:06:44.883Z,8.73
2019-04-04T12:09:16.642Z,8.03
2019-04-04T12:11:48.383Z,7.80
2019-04-04T12:14:20.092Z,6.58
2019-04-04T12:16:51.824Z,8.00
2019-04-04T12:19:24.609Z,6.60
2019-04-04T12:21:55.702Z,6.45
2019-04-04T12:24:27.194Z,8.38
2019-04-04T12:26:58.963Z,6.42
2019-04-04T12:29:30.727Z,7.10
2019-04-04T12:32:01.789Z,8.63
2019-04-04T12:34:33.295Z,7.20
2019-04-04T12:37:04.709Z,8.05
2019-04-04T12:39:36.211Z,7.80
2019-04-04T12:42:07.994Z,7.53
2019-04-04T12:44:39.730Z,7.95
2019-04-04T12:47:11.494Z,8.50
2019-04-04T12:49:43.366Z,8.60
2019-04-04T12:52:15.094Z,7.47
2019-04-04T12:54:46.798Z,7.20
2019-04-04T12:57:18.530Z,7.12
2019-04-04T12:59:50.298Z,7.50
2019-04-04T13:02:22.050Z,7.37
2019-04-04T13:04:53.834Z,8.53
2019-04-04T13:07:25.562Z,7.28
2019-04-04T13:09:57.338Z,8.73
2019-04-04T13:12:30.001Z,7.67
2019-04-04T13:15:02.512Z,7.50
2019-04-04T13:17:34.325Z,7.53
2019-04-04T13:30:49.970Z,7.67
2019-04-04T13:33:22.651Z,7.20
2019-04-04T13:35:54.494Z,7.03
2019-04-04T13:38:25.568Z,7.25
2019-04-04T13:40:57.094Z,9.38
2019-04-04T13:43:28.838Z,8.60
2019-04-04T13:46:00.638Z,8.78
2019-04-04T13:48:31.665Z,7.85
2019-04-04T13:51:03.213Z,7.30
2019-04-04T13:53:34.947Z,6.97
2019-04-04T13:56:06.701Z,7.28
2019-04-04T13:58:37.830Z,6.78
2019-04-04T14:01:09.410Z,7.33
2019-04-04T14:03:41.210Z,6.65
2019-04-04T14:06:13.036Z,7.25
2019-04-04T14:08:45.870Z,8.10
2019-04-04T14:11:17.673Z,8.50
2019-04-04T14:13:49.637Z,10.10
2019-04-04T14:16:21.284Z,7.03
2019-04-04T14:18:52.978Z,8.78
2019-04-04T14:21:24.714Z,6.92
2019-04-04T14:23:57.030Z,9.50
2019-04-04T14:26:29.359Z,7.90
2019-04-04T14:29:04.596Z,9.43
2019-04-04T14:31:35.535Z,7.33
2019-04-04T14:34:11.204Z,7.30
2019-04-04T14:36:40.699Z,9.58
2019-04-04T14:39:12.547Z,7.42
2019-04-04T14:41:44.171Z,7.70
2019-04-04T14:44:15.901Z,7.67
2019-04-04T14:46:48.344Z,7.12
2019-04-04T14:49:20.010Z,7.53
2019-04-04T14:51:51.742Z,11.65
2019-04-04T14:54:23.549Z,8.70
2019-04-04T14:56:54.587Z,13.15
2019-04-04T14:59:26.046Z,9.93
2019-04-04T15:01:57.754Z,7.97
2019-04-04T15:04:29.553Z,10.15
2019-04-04T15:07:01.290Z,8.70
2019-04-04T15:09:33.158Z,10.20
2019-04-04T15:12:04.922Z,9.33
2019-04-04T15:14:36.713Z,7.95
2019-04-04T15:17:08.439Z,10.03
2019-04-04T15:19:39.495Z,8.93
2019-04-04T15:22:11.058Z,8.43
2019-04-04T15:24:42.014Z,8.15
2019-04-04T15:27:12.853Z,7.35
2019-04-04T15:29:44.507Z,7.47
2019-04-04T15:32:16.259Z,6.90
2019-04-04T15:34:47.959Z,7.05
2019-04-04T15:37:18.950Z,7.25
2019-04-04T15:39:50.458Z,8.95
2019-04-04T15:42:22.162Z,8.00
2019-04-04T15:44:54.886Z,7.03
2019-04-04T15:47:26.603Z,7.33
2019-04-04T15:49:57.689Z,7.30
2019-04-04T15:52:28.742Z,8.35
2019-04-04T15:54:59.898Z,10.13
2019-04-04T15:57:31.078Z,7.62
2019-04-04T16:00:02.176Z,9.53
2019-04-04T16:02:34.371Z,9.65
2019-04-04T16:05:05.110Z,8.48
2019-04-04T16:07:36.917Z,7.90
2019-04-04T16:10:09.819Z,12.05
2019-04-04T16:12:41.614Z,10.85
2019-04-04T16:15:13.658Z,8.30
2019-04-04T16:17:44.803Z,9.40
2019-04-04T16:20:16.754Z,10.20
2019-04-04T16:22:48.358Z,9.00
2019-04-04T16:25:18.830Z,11.17
2019-04-04T16:27:49.193Z,8.53
2019-04-04T16:30:19.428Z,10.20
2019-04-04T16:32:49.794Z,10.77
2019-04-04T16:35:19.984Z,10.40
2019-04-04T16:37:51.022Z,8.53
2019-04-04T16:40:21.550Z,9.03
2019-04-04T16:42:51.741Z,10.50
2019-04-04T16:45:22.358Z,8.17
2019-04-04T16:47:52.678Z,16.27
2019-04-04T16:50:23.633Z,26.77
2019-04-04T16:52:54.382Z,29.80
2019-04-04T16:55:25.642Z,24.47
2019-04-04T16:57:56.422Z,19.87
2019-04-04T17:00:28.493Z,35.80
2019-04-04T17:02:59.722Z,102.57
2019-04-04T17:05:31.770Z,18.23
2019-04-04T17:08:03.157Z,17.73
2019-04-04T17:10:34.950Z,10.33
2019-04-04T17:13:06.178Z,10.67
2019-04-04T17:15:37.455Z,10.20
2019-04-04T17:18:08.786Z,12.53
2019-04-04T17:20:39.962Z,14.97
2019-04-04T17:23:11.583Z,14.10
2019-04-04T17:25:42.659Z,11.13
2019-04-04T17:28:14.491Z,12.70
2019-04-04T17:30:46.173Z,14.03
2019-04-04T17:33:17.514Z,15.53
2019-04-04T17:35:49.140Z,15.90
2019-04-04T17:38:21.577Z,14.40
2019-04-04T17:40:52.959Z,15.30
2019-04-04T17:43:24.284Z,18.27
2019-04-04T17:45:56.418Z,16.37
2019-04-04T17:48:28.438Z,16.13
2019-04-04T17:51:00.931Z,15.70
2019-04-04T17:53:32.279Z,16.30
2019-04-04T17:56:04.061Z,16.43
2019-04-04T17:58:35.731Z,16.50
2019-04-04T18:01:08.568Z,16.67
2019-04-04T18:03:39.842Z,15.87
2019-04-04T18:06:10.994Z,15.43
2019-04-04T18:08:42.220Z,16.07
2019-04-04T18:11:13.410Z,17.50
2019-04-04T18:13:43.935Z,16.97
2019-04-04T18:16:14.882Z,17.07
2019-04-04T18:18:45.406Z,16.93
2019-04-04T18:21:16.450Z,16.37
2019-04-04T18:23:46.978Z,16.37
2019-04-04T18:26:31.118Z,16.63
2019-04-04T18:29:06.329Z,15.37
2019-04-04T18:31:37.398Z,17.57
2019-04-04T18:34:10.654Z,18.07
2019-04-04T18:36:41.483Z,17.23
2019-04-04T18:39:12.705Z,16.73
2019-04-04T18:41:44.026Z,17.63
2019-04-04T18:44:15.155Z,17.97
2019-04-04T18:46:45.642Z,17.93
2019-04-04T18:49:16.623Z,16.77
2019-04-04T18:51:47.631Z,17.80
2019-04-04T18:54:19.225Z,17.20
2019-04-04T18:56:49.688Z,17.57
2019-04-04T18:59:20.846Z,16.83
2019-04-04T19:01:52.251Z,18.10
2019-04-04T19:04:23.470Z,18.33
2019-04-04T19:06:55.014Z,17.83
2019-04-04T19:09:26.438Z,17.87
2019-04-04T19:11:57.621Z,18.50
2019-04-04T19:14:28.830Z,18.60
2019-04-04T19:17:00.132Z,18.43
2019-04-04T19:19:31.826Z,19.03
2019-04-04T19:22:02.922Z,18.40
2019-04-04T19:24:34.217Z,19.23
2019-04-04T19:27:05.437Z,19.63
2019-04-04T19:29:36.874Z,19.07
2019-04-04T19:32:08.550Z,19.53
2019-04-04T19:34:39.955Z,19.37
2019-04-04T19:37:14.047Z,20.57
2019-04-04T19:39:49.251Z,20.73
2019-04-04T19:42:20.982Z,20.90
2019-04-04T19:44:53.427Z,20.73
2019-04-04T19:47:25.036Z,20.03
2019-04-04T19:49:56.193Z,19.47
2019-04-04T19:52:27.324Z,21.40
2019-04-04T19:54:58.682Z,19.63
2019-04-04T19:57:30.235Z,21.27
2019-04-04T20:00:01.451Z,21.20
2019-04-04T20:02:32.693Z,20.93
2019-04-04T20:05:04.003Z,21.67
2019-04-04T20:07:35.211Z,21.20
2019-04-04T20:10:07.085Z,21.07
2019-04-04T20:12:37.530Z,21.17
2019-04-04T20:15:08.916Z,20.33
2019-04-04T20:17:40.105Z,20.30
2019-04-04T20:20:11.981Z,20.27
2019-04-04T20:22:43.218Z,20.37
2019-04-04T20:25:14.361Z,20.17
2019-04-04T20:27:54.497Z,20.53
2019-04-04T20:30:23.539Z,20.37
2019-04-04T20:32:56.595Z,20.40
2019-04-04T20:35:27.835Z,21.10
2019-04-04T20:37:59.017Z,21.27
2019-04-04T20:40:30.153Z,20.03
2019-04-04T20:43:00.898Z,21.50
2019-04-04T20:45:43.017Z,21.77
2019-04-04T20:48:19.890Z,20.70
2019-04-04T20:50:51.902Z,21.03
2019-04-04T20:53:25.662Z,20.60
2019-04-04T20:55:58.299Z,20.13
2019-04-04T20:58:31.082Z,21.80
2019-04-04T21:01:02.126Z,22.43
2019-04-04T21:03:33.392Z,22.13
2019-04-04T21:06:04.510Z,22.37
2019-04-04T21:08:36.210Z,21.13
2019-04-04T21:11:07.428Z,21.47
2019-04-04T21:13:38.565Z,24.13
2019-04-04T21:16:31.849Z,22.30
2019-04-04T21:19:07.094Z,22.13
2019-04-04T21:21:38.341Z,20.50
2019-04-04T21:24:09.442Z,21.40
2019-04-04T21:26:40.506Z,20.07
2019-04-04T21:29:11.786Z,20.20
2019-04-04T21:31:42.970Z,20.50
2019-04-04T21:34:17.054Z,20.27
2019-04-04T21:36:46.686Z,20.80
2019-04-04T21:39:18.074Z,20.60
2019-04-04T21:41:58.110Z,20.23
2019-04-04T21:44:28.598Z,20.33
2019-04-04T21:46:58.790Z,20.20
2019-04-04T21:49:29.718Z,20.57
2019-04-04T21:52:00.153Z,21.90
2019-04-04T21:54:30.299Z,21.07
2019-04-04T21:57:01.638Z,19.77
2019-04-04T21:59:32.058Z,19.87
2019-04-04T22:02:03.062Z,21.37
2019-04-04T22:04:34.219Z,21.30
2019-04-04T22:07:05.683Z,21.17
2019-04-04T22:09:36.806Z,22.13
2019-04-04T22:12:08.069Z,21.30
2019-04-04T22:14:38.438Z,21.00
2019-04-04T22:17:09.363Z,20.83
2019-04-04T22:19:40.474Z,21.20
2019-04-04T22:22:11.606Z,21.00
2019-04-04T22:24:42.178Z,19.43
2019-04-04T22:27:13.226Z,20.17
2019-04-04T22:29:43.638Z,19.33
2019-04-04T22:32:14.206Z,19.10
2019-04-04T22:34:44.453Z,19.77
2019-04-04T22:37:15.325Z,19.70
2019-04-04T22:39:46.454Z,20.37
2019-04-04T22:42:17.630Z,20.47
2019-04-04T22:44:48.050Z,20.67
2019-04-04T22:47:18.978Z,19.90
2019-04-04T22:49:50.186Z,19.67
2019-04-04T22:52:21.394Z,21.03
2019-04-04T22:54:52.503Z,20.40
2019-04-04T22:57:23.638Z,20.37
2019-04-04T22:59:54.930Z,21.40
2019-04-04T23:02:26.021Z,21.77
2019-04-04T23:04:57.078Z,21.17
2019-04-04T23:07:27.567Z,22.00
2019-04-04T23:09:58.786Z,20.73
2019-04-04T23:12:29.810Z,21.00
2019-04-04T23:15:00.927Z,20.47
2019-04-04T23:17:31.556Z,21.30
2019-04-04T23:20:01.831Z,21.93
2019-04-04T23:22:33.186Z,21.63
2019-04-04T23:25:04.598Z,21.23
2019-04-04T23:27:35.762Z,20.20
2019-04-04T23:30:07.220Z,20.47
2019-04-04T23:32:38.336Z,19.83
2019-04-04T23:35:09.604Z,21.83
2019-04-04T23:37:41.141Z,20.40
2019-04-04T23:40:12.298Z,20.97
2019-04-04T23:42:43.434Z,21.63
2019-04-04T23:45:14.710Z,21.30
2019-04-04T23:47:45.133Z,21.87
2019-04-04T23:50:16.531Z,21.00
2019-04-04T23:52:47.710Z,20.90
2019-04-04T23:55:18.847Z,20.97
2019-04-04T23:57:50.409Z,19.40
